sensor_id;sensor_type;location;lat;lon;timestamp;temperature;humidity
4209;DHT22;36320;48.860;2.380;2022-10-31T00:01:57;19.20;77.90
4209;DHT22;36320;48.860;2.380;2022-10-31T00:04:53;19.10;77.70
4209;DHT22;36320;48.860;2.380;2022-10-31T00:07:19;20.10;79.00
4209;DHT22;36320;48.860;2.380;2022-10-31T00:09:44;19.20;78.20
4209;DHT22;36320;48.860;2.380;2022-10-31T00:12:10;19.10;78.20
4209;DHT22;36320;48.860;2.380;2022-10-31T00:14:37;19.10;78.40
4209;DHT22;36320;48.860;2.380;2022-10-31T00:17:03;19.10;78.60
4209;DHT22;36320;48.860;2.380;2022-10-31T00:19:28;19.10;78.60
4209;DHT22;36320;48.860;2.380;2022-10-31T00:21:54;19.10;78.70
4209;DHT22;36320;48.860;2.380;2022-10-31T00:24:21;19.10;78.70
4209;DHT22;36320;48.860;2.380;2022-10-31T00:26:47;19.10;78.90
4209;DHT22;36320;48.860;2.380;2022-10-31T00:29:13;19.10;79.00
4209;DHT22;36320;48.860;2.380;2022-10-31T00:31:38;19.10;79.00
4209;DHT22;36320;48.860;2.380;2022-10-31T00:34:04;18.50;78.40
4209;DHT22;36320;48.860;2.380;2022-10-31T00:36:30;19.10;79.20
4209;DHT22;36320;48.860;2.380;2022-10-31T00:38:58;19.10;79.20
4209;DHT22;36320;48.860;2.380;2022-10-31T00:41:25;19.10;79.20
4209;DHT22;36320;48.860;2.380;2022-10-31T00:43:51;19.10;79.30
4209;DHT22;36320;48.860;2.380;2022-10-31T00:46:16;19.00;79.40
4209;DHT22;36320;48.860;2.380;2022-10-31T00:48:42;19.00;79.50
4209;DHT22;36320;48.860;2.380;2022-10-31T00:51:09;19.00;79.50
4209;DHT22;36320;48.860;2.380;2022-10-31T00:53:35;19.10;79.60
4209;DHT22;36320;48.860;2.380;2022-10-31T00:56:01;19.10;79.60
4209;DHT22;36320;48.860;2.380;2022-10-31T00:58:27;19.10;79.60
4209;DHT22;36320;48.860;2.380;2022-10-31T01:00:52;19.00;79.70
4209;DHT22;36320;48.860;2.380;2022-10-31T01:03:24;19.10;80.00
4209;DHT22;36320;48.860;2.380;2022-10-31T01:06:06;19.10;80.00
4209;DHT22;36320;48.860;2.380;2022-10-31T01:08:33;19.10;80.10
4209;DHT22;36320;48.860;2.380;2022-10-31T01:11:05;19.10;80.10
4209;DHT22;36320;48.860;2.380;2022-10-31T01:13:31;19.10;80.20
4209;DHT22;36320;48.860;2.380;2022-10-31T01:15:58;19.00;80.20
4209;DHT22;36320;48.860;2.380;2022-10-31T01:18:25;19.00;80.30
4209;DHT22;36320;48.860;2.380;2022-10-31T01:21:19;19.00;80.30
4209;DHT22;36320;48.860;2.380;2022-10-31T01:23:45;19.00;80.50
4209;DHT22;36320;48.860;2.380;2022-10-31T01:26:15;19.10;80.50
4209;DHT22;36320;48.860;2.380;2022-10-31T01:31:10;19.20;80.60
4209;DHT22;36320;48.860;2.380;2022-10-31T01:33:38;19.20;80.50
4209;DHT22;36320;48.860;2.380;2022-10-31T01:36:18;19.20;80.40
4209;DHT22;36320;48.860;2.380;2022-10-31T01:38:46;19.10;80.40
4209;DHT22;36320;48.860;2.380;2022-10-31T01:41:14;19.10;80.50
4209;DHT22;36320;48.860;2.380;2022-10-31T01:43:53;19.10;80.60
4209;DHT22;36320;48.860;2.380;2022-10-31T01:46:26;19.10;80.70
4209;DHT22;36320;48.860;2.380;2022-10-31T01:48:54;19.20;80.70
4209;DHT22;36320;48.860;2.380;2022-10-31T01:51:23;19.10;80.60
4209;DHT22;36320;48.860;2.380;2022-10-31T01:53:52;19.10;80.60
4209;DHT22;36320;48.860;2.380;2022-10-31T01:56:21;19.10;80.70
4209;DHT22;36320;48.860;2.380;2022-10-31T01:58:47;19.10;80.70
4209;DHT22;36320;48.860;2.380;2022-10-31T02:01:14;19.10;80.70
4209;DHT22;36320;48.860;2.380;2022-10-31T02:03:43;19.20;80.90
4209;DHT22;36320;48.860;2.380;2022-10-31T02:06:18;19.20;80.80
4209;DHT22;36320;48.860;2.380;2022-10-31T02:08:45;19.10;80.70
4209;DHT22;36320;48.860;2.380;2022-10-31T02:11:11;19.20;80.90
4209;DHT22;36320;48.860;2.380;2022-10-31T02:13:37;19.20;80.80
4209;DHT22;36320;48.860;2.380;2022-10-31T02:16:03;19.20;81.50
4209;DHT22;36320;48.860;2.380;2022-10-31T02:18:30;19.20;80.70
4209;DHT22;36320;48.860;2.380;2022-10-31T02:26:49;19.10;80.90
4209;DHT22;36320;48.860;2.380;2022-10-31T02:32:09;19.00;81.70
4209;DHT22;36320;48.860;2.380;2022-10-31T02:34:59;18.90;81.50
4209;DHT22;36320;48.860;2.380;2022-10-31T02:43:20;19.00;82.00
4209;DHT22;36320;48.860;2.380;2022-10-31T02:46:15;19.10;81.50
4209;DHT22;36320;48.860;2.380;2022-10-31T02:48:44;19.20;81.50
4209;DHT22;36320;48.860;2.380;2022-10-31T02:51:14;19.20;81.20
4209;DHT22;36320;48.860;2.380;2022-10-31T02:53:40;19.30;81.10
4209;DHT22;36320;48.860;2.380;2022-10-31T03:06:49;19.30;80.80
4209;DHT22;36320;48.860;2.380;2022-10-31T03:12:11;19.30;80.80
4209;DHT22;36320;48.860;2.380;2022-10-31T03:17:38;19.30;80.80
4209;DHT22;36320;48.860;2.380;2022-10-31T03:20:07;19.30;80.80
4209;DHT22;36320;48.860;2.380;2022-10-31T03:22:35;19.30;80.80
4209;DHT22;36320;48.860;2.380;2022-10-31T03:25:04;19.30;81.50
4209;DHT22;36320;48.860;2.380;2022-10-31T03:27:33;19.30;80.80
4209;DHT22;36320;48.860;2.380;2022-10-31T03:30:05;19.30;80.80
4209;DHT22;36320;48.860;2.380;2022-10-31T03:32:43;19.30;80.90
4209;DHT22;36320;48.860;2.380;2022-10-31T03:35:11;19.30;80.90
4209;DHT22;36320;48.860;2.380;2022-10-31T03:37:39;19.30;80.90
4209;DHT22;36320;48.860;2.380;2022-10-31T03:40:07;19.30;81.60
4209;DHT22;36320;48.860;2.380;2022-10-31T03:42:40;19.30;80.90
4209;DHT22;36320;48.860;2.380;2022-10-31T03:47:38;19.30;80.80
4209;DHT22;36320;48.860;2.380;2022-10-31T03:50:06;19.30;80.80
4209;DHT22;36320;48.860;2.380;2022-10-31T03:55:19;19.30;80.80
4209;DHT22;36320;48.860;2.380;2022-10-31T03:57:53;19.20;80.80
4209;DHT22;36320;48.860;2.380;2022-10-31T04:00:20;19.20;80.90
4209;DHT22;36320;48.860;2.380;2022-10-31T04:03:12;19.20;80.90
4209;DHT22;36320;48.860;2.380;2022-10-31T04:05:38;19.20;81.00
4209;DHT22;36320;48.860;2.380;2022-10-31T04:08:10;19.20;81.00
4209;DHT22;36320;48.860;2.380;2022-10-31T04:10:38;19.20;80.90
4209;DHT22;36320;48.860;2.380;2022-10-31T04:13:11;19.20;80.90
4209;DHT22;36320;48.860;2.380;2022-10-31T04:15:38;19.20;80.90
4209;DHT22;36320;48.860;2.380;2022-10-31T04:18:05;19.10;80.70
4209;DHT22;36320;48.860;2.380;2022-10-31T04:20:36;19.20;81.00
4209;DHT22;36320;48.860;2.380;2022-10-31T04:23:04;19.20;81.00
4209;DHT22;36320;48.860;2.380;2022-10-31T04:25:31;19.10;80.90
4209;DHT22;36320;48.860;2.380;2022-10-31T04:27:57;19.20;81.10
4209;DHT22;36320;48.860;2.380;2022-10-31T04:30:22;19.10;80.90
4209;DHT22;36320;48.860;2.380;2022-10-31T04:32:49;19.10;80.90
4209;DHT22;36320;48.860;2.380;2022-10-31T04:35:15;18.80;80.60
4209;DHT22;36320;48.860;2.380;2022-10-31T04:37:41;19.10;80.90
4209;DHT22;36320;48.860;2.380;2022-10-31T04:40:07;19.00;80.80
4209;DHT22;36320;48.860;2.380;2022-10-31T04:42:33;19.10;81.00
4209;DHT22;36320;48.860;2.380;2022-10-31T04:44:59;19.10;80.90
4209;DHT22;36320;48.860;2.380;2022-10-31T04:47:24;19.10;80.90
4209;DHT22;36320;48.860;2.380;2022-10-31T04:49:52;19.10;80.80
4209;DHT22;36320;48.860;2.380;2022-10-31T04:52:17;19.10;80.80
4209;DHT22;36320;48.860;2.380;2022-10-31T04:54:43;19.00;80.60
4209;DHT22;36320;48.860;2.380;2022-10-31T04:57:08;19.10;80.70
4209;DHT22;36320;48.860;2.380;2022-10-31T04:59:34;19.00;80.70
4209;DHT22;36320;48.860;2.380;2022-10-31T05:02:00;19.00;80.60
4209;DHT22;36320;48.860;2.380;2022-10-31T05:04:26;19.10;80.60
4209;DHT22;36320;48.860;2.380;2022-10-31T05:06:53;19.50;81.20
4209;DHT22;36320;48.860;2.380;2022-10-31T05:09:19;19.10;80.70
4209;DHT22;36320;48.860;2.380;2022-10-31T05:11:45;19.10;80.60
4209;DHT22;36320;48.860;2.380;2022-10-31T05:14:10;18.90;80.40
4209;DHT22;36320;48.860;2.380;2022-10-31T05:16:36;19.10;80.70
4209;DHT22;36320;48.860;2.380;2022-10-31T05:19:01;19.10;80.60
4209;DHT22;36320;48.860;2.380;2022-10-31T05:21:27;19.10;80.60
4209;DHT22;36320;48.860;2.380;2022-10-31T05:23:54;19.10;80.60
4209;DHT22;36320;48.860;2.380;2022-10-31T05:26:21;19.10;80.60
4209;DHT22;36320;48.860;2.380;2022-10-31T05:28:47;19.10;80.60
4209;DHT22;36320;48.860;2.380;2022-10-31T05:31:14;19.10;80.60
4209;DHT22;36320;48.860;2.380;2022-10-31T05:33:40;19.10;80.60
4209;DHT22;36320;48.860;2.380;2022-10-31T05:36:06;19.10;80.60
4209;DHT22;36320;48.860;2.380;2022-10-31T05:38:31;19.10;80.50
4209;DHT22;36320;48.860;2.380;2022-10-31T05:40:57;19.10;80.40
4209;DHT22;36320;48.860;2.380;2022-10-31T05:43:25;19.00;80.30
4209;DHT22;36320;48.860;2.380;2022-10-31T05:45:55;19.00;80.30
4209;DHT22;36320;48.860;2.380;2022-10-31T05:48:21;18.90;80.40
4209;DHT22;36320;48.860;2.380;2022-10-31T05:50:48;19.00;80.50
4209;DHT22;36320;48.860;2.380;2022-10-31T05:53:15;18.80;80.20
4209;DHT22;36320;48.860;2.380;2022-10-31T05:55:41;19.00;81.10
4209;DHT22;36320;48.860;2.380;2022-10-31T05:58:08;19.00;80.40
4209;DHT22;36320;48.860;2.380;2022-10-31T06:00:34;18.90;80.40
4209;DHT22;36320;48.860;2.380;2022-10-31T06:03:08;18.90;80.40
4209;DHT22;36320;48.860;2.380;2022-10-31T06:05:34;18.90;80.30
4209;DHT22;36320;48.860;2.380;2022-10-31T06:08:00;18.90;80.20
4209;DHT22;36320;48.860;2.380;2022-10-31T06:10:28;18.90;80.30
4209;DHT22;36320;48.860;2.380;2022-10-31T06:12:56;19.00;80.30
4209;DHT22;36320;48.860;2.380;2022-10-31T06:15:22;19.00;80.20
4209;DHT22;36320;48.860;2.380;2022-10-31T06:17:57;18.90;80.20
4209;DHT22;36320;48.860;2.380;2022-10-31T06:20:23;19.00;80.30
4209;DHT22;36320;48.860;2.380;2022-10-31T06:22:49;18.90;80.10
4209;DHT22;36320;48.860;2.380;2022-10-31T06:25:15;19.20;80.30
4209;DHT22;36320;48.860;2.380;2022-10-31T06:27:40;19.10;80.10
4209;DHT22;36320;48.860;2.380;2022-10-31T06:30:08;19.00;79.90
4209;DHT22;36320;48.860;2.380;2022-10-31T06:32:34;19.00;80.00
4209;DHT22;36320;48.860;2.380;2022-10-31T06:35:01;19.00;79.90
4209;DHT22;36320;48.860;2.380;2022-10-31T06:37:26;19.00;79.90
4209;DHT22;36320;48.860;2.380;2022-10-31T06:39:54;19.00;79.90
4209;DHT22;36320;48.860;2.380;2022-10-31T06:42:19;18.00;78.80
4209;DHT22;36320;48.860;2.380;2022-10-31T06:44:45;19.00;79.80
4209;DHT22;36320;48.860;2.380;2022-10-31T06:47:11;19.00;79.90
4209;DHT22;36320;48.860;2.380;2022-10-31T06:49:36;19.00;79.90
4209;DHT22;36320;48.860;2.380;2022-10-31T06:52:02;19.00;79.90
4209;DHT22;36320;48.860;2.380;2022-10-31T06:54:28;19.00;80.10
4209;DHT22;36320;48.860;2.380;2022-10-31T06:56:54;19.00;80.00
4209;DHT22;36320;48.860;2.380;2022-10-31T06:59:21;19.00;80.20
4209;DHT22;36320;48.860;2.380;2022-10-31T07:01:47;18.90;80.20
4209;DHT22;36320;48.860;2.380;2022-10-31T07:04:13;18.90;80.40
4209;DHT22;36320;48.860;2.380;2022-10-31T07:06:39;19.00;80.50
4209;DHT22;36320;48.860;2.380;2022-10-31T07:09:05;18.90;80.60
4209;DHT22;36320;48.860;2.380;2022-10-31T07:11:31;18.90;80.80
4209;DHT22;36320;48.860;2.380;2022-10-31T07:13:56;18.90;80.90
4209;DHT22;36320;48.860;2.380;2022-10-31T07:16:22;18.80;80.90
4209;DHT22;36320;48.860;2.380;2022-10-31T07:18:49;18.90;81.20
4209;DHT22;36320;48.860;2.380;2022-10-31T07:21:15;18.90;81.00
4209;DHT22;36320;48.860;2.380;2022-10-31T07:23:42;19.00;81.00
4209;DHT22;36320;48.860;2.380;2022-10-31T07:26:09;20.20;82.10
4209;DHT22;36320;48.860;2.380;2022-10-31T07:28:35;19.10;81.00
4209;DHT22;36320;48.860;2.380;2022-10-31T07:31:01;19.10;81.00
4209;DHT22;36320;48.860;2.380;2022-10-31T07:33:28;19.10;80.90
4209;DHT22;36320;48.860;2.380;2022-10-31T07:35:54;19.10;80.90
4209;DHT22;36320;48.860;2.380;2022-10-31T07:38:20;19.10;80.70
4209;DHT22;36320;48.860;2.380;2022-10-31T07:40:50;19.20;80.90
4209;DHT22;36320;48.860;2.380;2022-10-31T07:43:19;19.10;80.70
4209;DHT22;36320;48.860;2.380;2022-10-31T07:45:49;19.10;80.80
4209;DHT22;36320;48.860;2.380;2022-10-31T07:48:16;19.20;80.90
4209;DHT22;36320;48.860;2.380;2022-10-31T07:50:41;19.20;81.00
4209;DHT22;36320;48.860;2.380;2022-10-31T07:53:10;19.20;80.80
4209;DHT22;36320;48.860;2.380;2022-10-31T07:55:37;19.20;80.90
4209;DHT22;36320;48.860;2.380;2022-10-31T07:58:16;19.20;80.70
4209;DHT22;36320;48.860;2.380;2022-10-31T08:00:44;19.20;80.70
4209;DHT22;36320;48.860;2.380;2022-10-31T08:03:13;19.30;80.80
4209;DHT22;36320;48.860;2.380;2022-10-31T08:05:39;19.30;80.80
4209;DHT22;36320;48.860;2.380;2022-10-31T08:08:08;19.20;80.60
4209;DHT22;36320;48.860;2.380;2022-10-31T08:10:34;19.30;80.80
4209;DHT22;36320;48.860;2.380;2022-10-31T08:13:06;19.30;80.60
4209;DHT22;36320;48.860;2.380;2022-10-31T08:15:34;19.30;80.60
4209;DHT22;36320;48.860;2.380;2022-10-31T08:18:05;19.40;80.60
4209;DHT22;36320;48.860;2.380;2022-10-31T08:20:31;19.40;80.50
4209;DHT22;36320;48.860;2.380;2022-10-31T08:22:59;19.40;80.50
4209;DHT22;36320;48.860;2.380;2022-10-31T08:25:27;19.50;80.40
4209;DHT22;36320;48.860;2.380;2022-10-31T08:27:55;19.50;80.40
4209;DHT22;36320;48.860;2.380;2022-10-31T08:30:27;19.40;80.50
4209;DHT22;36320;48.860;2.380;2022-10-31T08:33:13;19.50;80.60
4209;DHT22;36320;48.860;2.380;2022-10-31T08:35:39;19.60;80.50
4209;DHT22;36320;48.860;2.380;2022-10-31T08:38:06;19.60;80.30
4209;DHT22;36320;48.860;2.380;2022-10-31T08:40:35;19.60;80.20
4209;DHT22;36320;48.860;2.380;2022-10-31T08:43:14;19.40;79.90
4209;DHT22;36320;48.860;2.380;2022-10-31T08:45:41;19.70;80.10
4209;DHT22;36320;48.860;2.380;2022-10-31T08:48:11;19.80;80.00
4209;DHT22;36320;48.860;2.380;2022-10-31T08:50:38;19.80;80.00
4209;DHT22;36320;48.860;2.380;2022-10-31T08:53:15;19.80;80.00
4209;DHT22;36320;48.860;2.380;2022-10-31T08:55:42;19.80;79.90
4209;DHT22;36320;48.860;2.380;2022-10-31T08:58:20;19.80;79.80
4209;DHT22;36320;48.860;2.380;2022-10-31T09:00:52;19.90;80.00
4209;DHT22;36320;48.860;2.380;2022-10-31T09:03:24;20.00;79.70
4209;DHT22;36320;48.860;2.380;2022-10-31T09:05:53;20.10;79.60
4209;DHT22;36320;48.860;2.380;2022-10-31T09:08:20;20.10;79.30
4209;DHT22;36320;48.860;2.380;2022-10-31T09:10:48;20.20;79.30
4209;DHT22;36320;48.860;2.380;2022-10-31T09:13:21;20.00;79.00
4209;DHT22;36320;48.860;2.380;2022-10-31T09:15:49;19.90;79.30
4209;DHT22;36320;48.860;2.380;2022-10-31T09:18:20;19.90;79.40
4209;DHT22;36320;48.860;2.380;2022-10-31T09:20:47;19.80;79.50
4209;DHT22;36320;48.860;2.380;2022-10-31T09:23:16;19.70;79.70
4209;DHT22;36320;48.860;2.380;2022-10-31T09:25:44;19.70;79.90
4209;DHT22;36320;48.860;2.380;2022-10-31T09:28:12;19.80;79.90
4209;DHT22;36320;48.860;2.380;2022-10-31T09:30:39;19.90;80.00
4209;DHT22;36320;48.860;2.380;2022-10-31T09:33:11;19.80;79.80
4209;DHT22;36320;48.860;2.380;2022-10-31T09:35:39;19.90;79.80
4209;DHT22;36320;48.860;2.380;2022-10-31T09:38:16;19.80;79.60
4209;DHT22;36320;48.860;2.380;2022-10-31T09:40:51;19.90;79.80
4209;DHT22;36320;48.860;2.380;2022-10-31T09:43:38;19.90;79.70
4209;DHT22;36320;48.860;2.380;2022-10-31T09:46:14;20.00;79.60
4209;DHT22;36320;48.860;2.380;2022-10-31T09:51:30;20.10;79.50
4209;DHT22;36320;48.860;2.380;2022-10-31T09:54:14;20.10;79.50
4209;DHT22;36320;48.860;2.380;2022-10-31T09:56:41;20.00;79.60
4209;DHT22;36320;48.860;2.380;2022-10-31T09:59:25;19.90;79.50
4209;DHT22;36320;48.860;2.380;2022-10-31T10:02:30;20.30;80.10
4209;DHT22;36320;48.860;2.380;2022-10-31T10:05:02;19.90;80.50
4209;DHT22;36320;48.860;2.380;2022-10-31T10:07:39;19.90;79.90
4209;DHT22;36320;48.860;2.380;2022-10-31T10:10:15;19.90;80.00
4209;DHT22;36320;48.860;2.380;2022-10-31T10:15:37;20.00;80.00
4209;DHT22;36320;48.860;2.380;2022-10-31T10:23:38;20.10;79.80
4209;DHT22;36320;48.860;2.380;2022-10-31T10:26:30;20.10;79.60
4209;DHT22;36320;48.860;2.380;2022-10-31T10:31:47;20.30;79.50
4209;DHT22;36320;48.860;2.380;2022-10-31T10:34:43;20.40;79.10
4209;DHT22;36320;48.860;2.380;2022-10-31T10:37:32;20.60;79.00
4209;DHT22;36320;48.860;2.380;2022-10-31T10:40:15;20.80;78.60
4209;DHT22;36320;48.860;2.380;2022-10-31T10:43:01;21.10;78.20
4209;DHT22;36320;48.860;2.380;2022-10-31T10:49:19;21.50;77.10
4209;DHT22;36320;48.860;2.380;2022-10-31T10:57:48;22.00;75.50
4209;DHT22;36320;48.860;2.380;2022-10-31T11:00:23;22.20;75.00
4209;DHT22;36320;48.860;2.380;2022-10-31T11:02:50;22.20;74.50
4209;DHT22;36320;48.860;2.380;2022-10-31T11:05:46;22.00;74.10
4209;DHT22;36320;48.860;2.380;2022-10-31T11:08:27;22.00;74.10
4209;DHT22;36320;48.860;2.380;2022-10-31T11:13:44;21.70;74.30
4209;DHT22;36320;48.860;2.380;2022-10-31T11:16:37;21.60;74.30
4209;DHT22;36320;48.860;2.380;2022-10-31T11:19:20;21.50;74.40
4209;DHT22;36320;48.860;2.380;2022-10-31T11:21:49;21.50;74.30
4209;DHT22;36320;48.860;2.380;2022-10-31T11:24:21;21.50;74.20
4209;DHT22;36320;48.860;2.380;2022-10-31T11:26:50;21.50;74.30
4209;DHT22;36320;48.860;2.380;2022-10-31T11:29:24;21.60;74.40
4209;DHT22;36320;48.860;2.380;2022-10-31T11:31:55;21.60;74.30
4209;DHT22;36320;48.860;2.380;2022-10-31T11:34:36;21.60;74.90
4209;DHT22;36320;48.860;2.380;2022-10-31T11:37:26;21.60;74.00
4209;DHT22;36320;48.860;2.380;2022-10-31T11:39:54;21.20;73.60
4209;DHT22;36320;48.860;2.380;2022-10-31T11:42:25;21.70;74.00
4209;DHT22;36320;48.860;2.380;2022-10-31T11:44:53;21.70;73.70
4209;DHT22;36320;48.860;2.380;2022-10-31T11:47:30;21.80;73.60
4209;DHT22;36320;48.860;2.380;2022-10-31T11:50:08;21.80;73.40
4209;DHT22;36320;48.860;2.380;2022-10-31T11:52:38;21.90;73.40
4209;DHT22;36320;48.860;2.380;2022-10-31T11:55:16;21.90;73.20
4209;DHT22;36320;48.860;2.380;2022-10-31T11:57:48;21.90;72.80
4209;DHT22;36320;48.860;2.380;2022-10-31T12:00:24;22.00;72.80
4209;DHT22;36320;48.860;2.380;2022-10-31T12:03:01;22.00;72.60
4209;DHT22;36320;48.860;2.380;2022-10-31T12:05:30;22.00;72.60
4209;DHT22;36320;48.860;2.380;2022-10-31T12:07:58;22.10;72.80
4209;DHT22;36320;48.860;2.380;2022-10-31T12:10:35;22.10;72.80
4209;DHT22;36320;48.860;2.380;2022-10-31T12:13:30;22.00;72.90
4209;DHT22;36320;48.860;2.380;2022-10-31T12:16:31;22.10;73.20
4209;DHT22;36320;48.860;2.380;2022-10-31T12:22:05;22.30;73.40
4209;DHT22;36320;48.860;2.380;2022-10-31T12:24:58;22.30;73.20
4209;DHT22;36320;48.860;2.380;2022-10-31T12:30:46;22.50;72.90
4209;DHT22;36320;48.860;2.380;2022-10-31T12:33:45;22.60;72.70
4209;DHT22;36320;48.860;2.380;2022-10-31T12:44:38;22.90;71.20
4209;DHT22;36320;48.860;2.380;2022-10-31T12:53:07;22.90;70.50
4209;DHT22;36320;48.860;2.380;2022-10-31T12:59:00;23.50;69.60
4209;DHT22;36320;48.860;2.380;2022-10-31T13:01:39;23.60;69.10
4209;DHT22;36320;48.860;2.380;2022-10-31T13:07:01;23.20;69.70
4209;DHT22;36320;48.860;2.380;2022-10-31T13:09:38;23.20;70.00
4209;DHT22;36320;48.860;2.380;2022-10-31T13:12:14;23.20;70.20
4209;DHT22;36320;48.860;2.380;2022-10-31T13:14:47;23.40;70.10
4209;DHT22;36320;48.860;2.380;2022-10-31T13:17:41;23.40;70.00
4209;DHT22;36320;48.860;2.380;2022-10-31T13:20:28;23.60;70.00
4209;DHT22;36320;48.860;2.380;2022-10-31T13:25:47;23.70;69.60
4209;DHT22;36320;48.860;2.380;2022-10-31T13:30:52;23.60;70.10
4209;DHT22;36320;48.860;2.380;2022-10-31T13:33:33;23.70;70.00
4209;DHT22;36320;48.860;2.380;2022-10-31T13:42:21;23.30;70.70
4209;DHT22;36320;48.860;2.380;2022-10-31T13:44:49;23.30;70.80
4209;DHT22;36320;48.860;2.380;2022-10-31T13:47:28;23.00;71.20
4209;DHT22;36320;48.860;2.380;2022-10-31T13:50:33;23.00;71.80
4209;DHT22;36320;48.860;2.380;2022-10-31T13:53:21;23.00;71.80
4209;DHT22;36320;48.860;2.380;2022-10-31T13:56:15;23.00;72.20
4209;DHT22;36320;48.860;2.380;2022-10-31T14:01:26;23.20;72.10
4209;DHT22;36320;48.860;2.380;2022-10-31T14:06:42;23.10;71.90
4209;DHT22;36320;48.860;2.380;2022-10-31T14:09:27;23.10;72.10
4209;DHT22;36320;48.860;2.380;2022-10-31T14:11:55;23.00;72.30
4209;DHT22;36320;48.860;2.380;2022-10-31T14:14:33;23.00;72.50
4209;DHT22;36320;48.860;2.380;2022-10-31T14:17:00;22.90;72.60
4209;DHT22;36320;48.860;2.380;2022-10-31T14:19:28;22.90;72.80
4209;DHT22;36320;48.860;2.380;2022-10-31T14:21:54;22.90;72.80
4209;DHT22;36320;48.860;2.380;2022-10-31T14:24:33;23.00;72.80
4209;DHT22;36320;48.860;2.380;2022-10-31T14:27:02;23.10;72.70
4209;DHT22;36320;48.860;2.380;2022-10-31T14:29:30;23.20;72.60
4209;DHT22;36320;48.860;2.380;2022-10-31T14:34:52;23.20;72.50
4209;DHT22;36320;48.860;2.380;2022-10-31T14:37:28;23.20;72.60
4209;DHT22;36320;48.860;2.380;2022-10-31T14:51:24;23.00;73.30
4209;DHT22;36320;48.860;2.380;2022-10-31T14:53:54;22.90;73.30
4209;DHT22;36320;48.860;2.380;2022-10-31T14:56:29;22.90;73.50
4209;DHT22;36320;48.860;2.380;2022-10-31T14:59:00;22.90;73.40
4209;DHT22;36320;48.860;2.380;2022-10-31T15:01:27;23.00;73.40
4209;DHT22;36320;48.860;2.380;2022-10-31T15:04:18;23.10;73.40
4209;DHT22;36320;48.860;2.380;2022-10-31T15:06:51;23.00;73.30
4209;DHT22;36320;48.860;2.380;2022-10-31T15:09:27;22.90;73.50
4209;DHT22;36320;48.860;2.380;2022-10-31T15:11:53;22.90;73.70
4209;DHT22;36320;48.860;2.380;2022-10-31T15:14:23;22.80;73.60
4209;DHT22;36320;48.860;2.380;2022-10-31T15:16:50;22.80;73.80
4209;DHT22;36320;48.860;2.380;2022-10-31T15:19:24;22.80;74.00
4209;DHT22;36320;48.860;2.380;2022-10-31T15:21:53;22.80;74.00
4209;DHT22;36320;48.860;2.380;2022-10-31T15:24:20;22.80;74.00
4209;DHT22;36320;48.860;2.380;2022-10-31T15:26:51;22.70;74.00
4209;DHT22;36320;48.860;2.380;2022-10-31T15:29:22;22.70;74.00
4209;DHT22;36320;48.860;2.380;2022-10-31T15:31:57;22.70;74.10
4209;DHT22;36320;48.860;2.380;2022-10-31T15:34:37;22.60;74.20
4209;DHT22;36320;48.860;2.380;2022-10-31T15:37:03;22.60;74.30
4209;DHT22;36320;48.860;2.380;2022-10-31T15:39:29;22.60;74.30
4209;DHT22;36320;48.860;2.380;2022-10-31T15:41:57;22.50;74.40
4209;DHT22;36320;48.860;2.380;2022-10-31T15:44:36;22.50;74.60
4209;DHT22;36320;48.860;2.380;2022-10-31T15:47:16;22.40;75.00
4209;DHT22;36320;48.860;2.380;2022-10-31T15:49:50;22.40;74.90
4209;DHT22;36320;48.860;2.380;2022-10-31T15:52:33;22.40;75.00
4209;DHT22;36320;48.860;2.380;2022-10-31T15:55:30;22.30;75.10
4209;DHT22;36320;48.860;2.380;2022-10-31T15:58:00;22.20;75.10
4209;DHT22;36320;48.860;2.380;2022-10-31T16:00:33;22.20;75.20
4209;DHT22;36320;48.860;2.380;2022-10-31T16:06:22;22.20;75.20
4209;DHT22;36320;48.860;2.380;2022-10-31T16:08:54;22.20;75.20
4209;DHT22;36320;48.860;2.380;2022-10-31T16:13:59;22.10;75.00
4209;DHT22;36320;48.860;2.380;2022-10-31T16:16:27;22.10;75.00
4209;DHT22;36320;48.860;2.380;2022-10-31T16:18:55;21.90;74.70
4209;DHT22;36320;48.860;2.380;2022-10-31T16:21:31;22.10;75.00
4209;DHT22;36320;48.860;2.380;2022-10-31T16:24:11;22.00;74.90
4209;DHT22;36320;48.860;2.380;2022-10-31T16:26:38;22.00;74.70
4209;DHT22;36320;48.860;2.380;2022-10-31T16:29:04;22.00;74.60
4209;DHT22;36320;48.860;2.380;2022-10-31T16:31:37;22.00;74.50
4209;DHT22;36320;48.860;2.380;2022-10-31T16:34:17;22.00;74.60
4209;DHT22;36320;48.860;2.380;2022-10-31T16:36:43;22.00;74.40
4209;DHT22;36320;48.860;2.380;2022-10-31T16:39:09;22.00;74.30
4209;DHT22;36320;48.860;2.380;2022-10-31T16:41:45;22.00;74.30
4209;DHT22;36320;48.860;2.380;2022-10-31T16:46:43;21.90;74.10
4209;DHT22;36320;48.860;2.380;2022-10-31T16:49:11;21.90;74.10
4209;DHT22;36320;48.860;2.380;2022-10-31T16:51:37;21.90;74.20
4209;DHT22;36320;48.860;2.380;2022-10-31T16:54:06;21.80;74.40
4209;DHT22;36320;48.860;2.380;2022-10-31T16:56:34;21.90;74.90
4209;DHT22;36320;48.860;2.380;2022-10-31T16:59:05;21.90;75.20
4209;DHT22;36320;48.860;2.380;2022-10-31T17:01:35;21.80;76.20
4209;DHT22;36320;48.860;2.380;2022-10-31T17:04:00;21.80;75.70
4209;DHT22;36320;48.860;2.380;2022-10-31T17:06:26;21.70;75.80
4209;DHT22;36320;48.860;2.380;2022-10-31T17:08:53;21.80;76.20
4209;DHT22;36320;48.860;2.380;2022-10-31T17:11:22;21.80;76.40
4209;DHT22;36320;48.860;2.380;2022-10-31T17:13:49;21.30;76.50
4209;DHT22;36320;48.860;2.380;2022-10-31T17:16:17;21.60;77.80
4209;DHT22;36320;48.860;2.380;2022-10-31T17:18:42;21.70;78.40
4209;DHT22;36320;48.860;2.380;2022-10-31T17:21:18;21.50;79.20
4209;DHT22;36320;48.860;2.380;2022-10-31T17:23:45;21.60;79.40
4209;DHT22;36320;48.860;2.380;2022-10-31T17:26:12;21.60;79.10
4209;DHT22;36320;48.860;2.380;2022-10-31T17:28:38;21.60;79.40
4209;DHT22;36320;48.860;2.380;2022-10-31T17:31:04;21.60;79.80
4209;DHT22;36320;48.860;2.380;2022-10-31T17:33:30;21.40;80.30
4209;DHT22;36320;48.860;2.380;2022-10-31T17:35:56;21.20;81.50
4209;DHT22;36320;48.860;2.380;2022-10-31T17:38:25;21.40;82.80
4209;DHT22;36320;48.860;2.380;2022-10-31T17:40:51;21.00;82.70
4209;DHT22;36320;48.860;2.380;2022-10-31T17:43:18;20.90;83.10
4209;DHT22;36320;48.860;2.380;2022-10-31T17:45:47;20.80;83.40
4209;DHT22;36320;48.860;2.380;2022-10-31T17:48:13;20.80;83.40
4209;DHT22;36320;48.860;2.380;2022-10-31T17:50:40;20.70;83.90
4209;DHT22;36320;48.860;2.380;2022-10-31T17:53:07;22.30;85.90
4209;DHT22;36320;48.860;2.380;2022-10-31T17:55:33;20.80;84.50
4209;DHT22;36320;48.860;2.380;2022-10-31T17:57:59;20.70;84.50
4209;DHT22;36320;48.860;2.380;2022-10-31T18:00:24;20.70;84.90
4209;DHT22;36320;48.860;2.380;2022-10-31T18:02:51;20.60;85.20
4209;DHT22;36320;48.860;2.380;2022-10-31T18:05:17;20.60;85.60
4209;DHT22;36320;48.860;2.380;2022-10-31T18:07:43;20.50;85.90
4209;DHT22;36320;48.860;2.380;2022-10-31T18:10:09;20.50;86.20
4209;DHT22;36320;48.860;2.380;2022-10-31T18:12:37;20.60;86.70
4209;DHT22;36320;48.860;2.380;2022-10-31T18:15:03;20.40;86.80
4209;DHT22;36320;48.860;2.380;2022-10-31T18:17:31;20.30;87.30
4209;DHT22;36320;48.860;2.380;2022-10-31T18:19:56;20.40;87.70